Time,TemperatureF,DewpointF,PressureIn,WindDirection,WindDirectionDegrees,WindSpeedMPH,WindSpeedGustMPH,Humidity,HourlyPrecipIn,Conditions,Clouds,dailyrainin,SoftwareType,DateUTC
2013-07-05 00:01:00,64.6,63.4,30.03,NE,42,0.0,0.0,96,0.00,,,0.00,WUHU216DAVISVP2,2013-07-05 04:01:00,
2013-07-05 00:06:00,64.6,63.4,30.02,NE,42,0.0,0.0,96,0.00,,,0.00,WUHU216DAVISVP2,2013-07-05 04:06:00,
2013-07-05 00:11:00,64.6,63.4,30.02,NE,42,0.0,0.0,96,0.00,,,0.00,WUHU216DAVISVP2,2013-07-05 04:11:00,
2013-07-05 00:17:00,64.6,63.4,30.03,NE,41,0.0,0.0,96,0.00,,,0.00,WUHU216DAVISVP2,2013-07-05 04:17:00,
2013-07-05 00:22:00,64.6,63.4,30.03,NE,42,0.0,0.0,96,0.00,,,0.00,WUHU216DAVISVP2,2013-07-05 04:22:00,
2013-07-05 00:27:00,64.5,63.3,30.03,NE,41,0.0,0.0,96,0.00,,,0.00,WUHU216DAVISVP2,2013-07-05 04:27:00,
2013-07-05 00:32:00,64.4,63.2,30.03,NE,42,0.0,0.0,96,0.00,,,0.00,WUHU216DAVISVP2,2013-07-05 04:32:00,
2013-07-05 00:37:00,64.3,63.1,30.03,NE,41,0.0,0.0,96,0.00,,,0.00,WUHU216DAVISVP2,2013-07-05 04:37:00,
2013-07-05 00:42:00,64.2,63.0,30.03,NE,42,0.0,0.0,96,0.00,,,0.00,WUHU216DAVISVP2,2013-07-05 04:42:00,
2013-07-05 00:47:00,64.1,62.9,30.03,NE,41,0.0,0.0,96,0.00,,,0.00,WUHU216DAVISVP2,2013-07-05 04:47:00,
2013-07-05 00:52:00,64.1,62.9,30.03,NE,42,0.0,0.0,96,0.00,,,0.00,WUHU216DAVISVP2,2013-07-05 04:52:00,
2013-07-05 00:57:00,64.0,62.8,30.03,NE,41,0.0,0.0,96,0.00,,,0.00,WUHU216DAVISVP2,2013-07-05 04:57:00,
2013-07-05 01:02:00,63.9,62.7,30.03,NE,42,0.0,0.0,96,0.00,,,0.00,WUHU216DAVISVP2,2013-07-05 05:02:00,
2013-07-05 01:07:00,63.9,62.7,30.02,NE,41,0.0,0.0,96,0.00,,,0.00,WUHU216DAVISVP2,2013-07-05 05:07:00,
2013-07-05 01:12:00,63.9,63.0,30.02,NE,42,0.0,0.0,97,0.00,,,0.00,WUHU216DAVISVP2,2013-07-05 05:12:00,
2013-07-05 01:17:00,63.9,63.0,30.03,NE,42,0.0,0.0,97,0.00,,,0.00,WUHU216DAVISVP2,2013-07-05 05:17:00,
2013-07-05 01:22:00,63.9,63.0,30.02,NE,42,0.0,0.0,97,0.00,,,0.00,WUHU216DAVISVP2,2013-07-05 05:22:00,
2013-07-05 01:27:00,63.9,63.0,30.02,NE,41,0.0,0.0,97,0.00,,,0.00,WUHU216DAVISVP2,2013-07-05 05:27:00,
2013-07-05 01:32:00,63.8,62.9,30.02,NE,42,0.0,0.0,97,0.00,,,0.00,WUHU216DAVISVP2,2013-07-05 05:32:00,
2013-07-05 01:37:00,63.8,62.9,30.02,NE,42,0.0,0.0,97,0.00,,,0.00,WUHU216DAVISVP2,2013-07-05 05:37:00,
2013-07-05 01:42:00,63.8,62.9,30.02,NE,42,0.0,0.0,97,0.00,,,0.00,WUHU216DAVISVP2,2013-07-05 05:42:00,
2013-07-05 01:47:00,63.8,62.9,30.02,NE,42,0.0,0.0,97,0.00,,,0.00,WUHU216DAVISVP2,2013-07-05 05:47:00,
2013-07-05 01:52:00,63.8,62.9,30.02,NE,41,0.0,0.0,97,0.00,,,0.00,WUHU216DAVISVP2,2013-07-05 05:52:00,
2013-07-05 01:57:00,63.9,63.0,30.02,NE,42,0.0,0.0,97,0.00,,,0.00,WUHU216DAVISVP2,2013-07-05 05:57:00,
2013-07-05 02:02:00,63.9,63.0,30.02,NE,42,0.0,0.0,97,0.00,,,0.00,WUHU216DAVISVP2,2013-07-05 06:02:00,
2013-07-05 02:07:00,63.8,62.9,30.02,NE,42,0.0,0.0,97,0.00,,,0.00,WUHU216DAVISVP2,2013-07-05 06:07:00,
2013-07-05 02:12:00,63.8,62.9,30.02,NE,42,0.0,0.0,97,0.00,,,0.00,WUHU216DAVISVP2,2013-07-05 06:12:00,
2013-07-05 02:17:00,63.8,62.9,30.02,NE,42,0.0,0.0,97,0.00,,,0.00,WUHU216DAVISVP2,2013-07-05 06:17:00,
2013-07-05 02:22:00,63.9,63.0,30.02,NE,42,0.0,0.0,97,0.00,,,0.00,WUHU216DAVISVP2,2013-07-05 06:22:00,
2013-07-05 02:27:00,63.9,63.0,30.02,NE,42,0.0,0.0,97,0.00,,,0.00,WUHU216DAVISVP2,2013-07-05 06:27:00,
2013-07-05 02:32:00,63.9,63.0,30.02,NE,41,0.0,0.0,97,0.00,,,0.00,WUHU216DAVISVP2,2013-07-05 06:32:00,
2013-07-05 02:37:00,63.9,63.0,30.02,NE,42,0.0,0.0,97,0.00,,,0.00,WUHU216DAVISVP2,2013-07-05 06:37:00,
2013-07-05 02:42:00,63.9,63.0,30.02,NE,42,0.0,0.0,97,0.00,,,0.00,WUHU216DAVISVP2,2013-07-05 06:42:00,
2013-07-05 02:47:00,63.8,62.9,30.02,NE,42,0.0,0.0,97,0.00,,,0.00,WUHU216DAVISVP2,2013-07-05 06:47:00,
2013-07-05 02:52:00,63.8,62.9,30.02,NE,42,0.0,0.0,97,0.00,,,0.00,WUHU216DAVISVP2,2013-07-05 06:52:00,
2013-07-05 02:57:00,63.7,62.8,30.02,NE,42,0.0,0.0,97,0.00,,,0.00,WUHU216DAVISVP2,2013-07-05 06:57:00,
2013-07-05 03:02:00,63.6,62.7,30.02,NE,42,0.0,0.0,97,0.00,,,0.00,WUHU216DAVISVP2,2013-07-05 07:02:00,
2013-07-05 03:07:00,63.6,62.7,30.02,NE,42,0.0,0.0,97,0.00,,,0.00,WUHU216DAVISVP2,2013-07-05 07:07:00,
2013-07-05 03:12:00,63.6,62.7,30.02,NE,42,0.0,0.0,97,0.00,,,0.00,WUHU216DAVISVP2,2013-07-05 07:12:00,
2013-07-05 03:17:00,63.5,62.6,30.01,NE,42,0.0,0.0,97,0.00,,,0.00,WUHU216DAVISVP2,2013-07-05 07:17:00,
2013-07-05 03:22:00,63.4,62.5,30.01,NE,42,0.0,0.0,97,0.00,,,0.00,WUHU216DAVISVP2,2013-07-05 07:22:00,
2013-07-05 03:27:00,63.3,62.4,30.01,NE,42,0.0,0.0,97,0.00,,,0.00,WUHU216DAVISVP2,2013-07-05 07:27:00,
2013-07-05 03:32:00,63.1,61.9,30.01,NE,41,0.0,0.0,96,0.00,,,0.00,WUHU216DAVISVP2,2013-07-05 07:32:00,
2013-07-05 03:37:00,62.9,62.0,30.01,NE,41,0.0,0.0,97,0.00,,,0.00,WUHU216DAVISVP2,2013-07-05 07:37:00,
2013-07-05 03:42:00,62.7,61.8,30.01,NE,42,0.0,0.0,97,0.00,,,0.00,WUHU216DAVISVP2,2013-07-05 07:42:00,
2013-07-05 03:47:00,62.6,61.7,30.01,NE,42,0.0,0.0,97,0.00,,,0.00,WUHU216DAVISVP2,2013-07-05 07:47:00,
2013-07-05 03:52:00,62.4,61.2,30.01,NE,42,0.0,0.0,96,0.00,,,0.00,WUHU216DAVISVP2,2013-07-05 07:52:00,
2013-07-05 03:57:00,62.2,61.0,30.01,NE,41,0.0,0.0,96,0.00,,,0.00,WUHU216DAVISVP2,2013-07-05 07:57:00,
2013-07-05 04:02:00,62.1,61.2,30.01,NE,42,0.0,0.0,97,0.00,,,0.00,WUHU216DAVISVP2,2013-07-05 08:02:00,
2013-07-05 04:07:00,62.1,61.2,30.01,NE,42,0.0,0.0,97,0.00,,,0.00,WUHU216DAVISVP2,2013-07-05 08:07:00,
2013-07-05 04:12:00,62.1,61.2,30.01,NE,41,0.0,0.0,97,0.00,,,0.00,WUHU216DAVISVP2,2013-07-05 08:12:00,
2013-07-05 04:17:00,62.0,61.1,30.01,NE,42,0.0,0.0,97,0.00,,,0.00,WUHU216DAVISVP2,2013-07-05 08:17:00,
2013-07-05 04:22:00,62.0,61.1,30.01,NE,42,0.0,0.0,97,0.00,,,0.00,WUHU216DAVISVP2,2013-07-05 08:22:00,
2013-07-05 04:27:00,62.0,61.1,30.01,NE,42,0.0,0.0,97,0.00,,,0.00,WUHU216DAVISVP2,2013-07-05 08:27:00,
2013-07-05 04:32:00,62.0,61.1,30.02,NE,42,0.0,0.0,97,0.00,,,0.00,WUHU216DAVISVP2,2013-07-05 08:32:00,
2013-07-05 04:37:00,62.0,61.1,30.01,NE,42,0.0,0.0,97,0.00,,,0.00,WUHU216DAVISVP2,2013-07-05 08:37:00,
2013-07-05 04:42:00,61.9,61.0,30.02,NE,42,0.0,0.0,97,0.00,,,0.00,WUHU216DAVISVP2,2013-07-05 08:42:00,
2013-07-05 04:47:00,61.8,60.9,30.02,NE,41,0.0,0.0,97,0.00,,,0.00,WUHU216DAVISVP2,2013-07-05 08:47:00,
2013-07-05 04:52:00,61.7,60.8,30.02,NE,42,0.0,0.0,97,0.00,,,0.00,WUHU216DAVISVP2,2013-07-05 08:52:00,
2013-07-05 04:57:00,61.7,60.8,30.02,NE,41,0.0,0.0,97,0.00,,,0.00,WUHU216DAVISVP2,2013-07-05 08:57:00,
2013-07-05 05:03:00,61.6,60.7,30.02,NE,42,0.0,0.0,97,0.00,,,0.00,WUHU216DAVISVP2,2013-07-05 09:03:00,
2013-07-05 05:08:00,61.6,60.7,30.02,NE,42,0.0,0.0,97,0.00,,,0.00,WUHU216DAVISVP2,2013-07-05 09:08:00,
2013-07-05 05:13:00,61.5,60.6,30.02,NE,42,0.0,0.0,97,0.00,,,0.00,WUHU216DAVISVP2,2013-07-05 09:13:00,
2013-07-05 05:18:00,61.4,60.5,30.02,NE,42,0.0,0.0,97,0.00,,,0.00,WUHU216DAVISVP2,2013-07-05 09:18:00,
2013-07-05 05:24:00,61.2,60.3,30.02,NE,42,0.0,0.0,97,0.00,,,0.00,WUHU216DAVISVP2,2013-07-05 09:24:00,
2013-07-05 05:29:00,61.1,60.2,30.02,NE,42,0.0,0.0,97,0.00,,,0.00,WUHU216DAVISVP2,2013-07-05 09:29:00,
2013-07-05 05:34:00,61.2,60.3,30.02,NE,42,0.0,0.0,97,0.00,,,0.00,WUHU216DAVISVP2,2013-07-05 09:34:00,
2013-07-05 05:39:00,61.2,60.3,30.02,NE,42,0.0,0.0,97,0.00,,,0.00,WUHU216DAVISVP2,2013-07-05 09:39:00,
2013-07-05 05:44:00,61.1,60.2,30.01,NE,42,0.0,0.0,97,0.00,,,0.00,WUHU216DAVISVP2,2013-07-05 09:44:00,
2013-07-05 05:50:00,60.9,60.0,30.01,NE,41,0.0,0.0,97,0.00,,,0.00,WUHU216DAVISVP2,2013-07-05 09:50:00,
2013-07-05 05:55:00,60.9,60.0,30.01,NE,42,0.0,0.0,97,0.00,,,0.00,WUHU216DAVISVP2,2013-07-05 09:55:00,
2013-07-05 06:01:00,61.0,60.1,30.02,NE,41,0.0,0.0,97,0.00,,,0.00,WUHU216DAVISVP2,2013-07-05 10:01:00,
2013-07-05 06:06:00,61.0,60.1,30.02,NE,42,0.0,0.0,97,0.00,,,0.00,WUHU216DAVISVP2,2013-07-05 10:06:00,
2013-07-05 06:11:00,61.0,60.1,30.02,NNW,331,1.0,1.0,97,0.00,,,0.00,WUHU216DAVISVP2,2013-07-05 10:11:00,
2013-07-05 06:16:00,60.9,60.0,30.01,NNW,344,0.0,1.0,97,0.00,,,0.00,WUHU216DAVISVP2,2013-07-05 10:16:00,
2013-07-05 06:23:00,60.6,59.7,30.02,WSW,242,0.0,0.0,97,0.00,,,0.00,WUHU216DAVISVP2,2013-07-05 10:23:00,
2013-07-05 06:28:00,60.4,59.5,30.02,WSW,242,0.0,0.0,97,0.00,,,0.00,WUHU216DAVISVP2,2013-07-05 10:28:00,
2013-07-05 06:33:00,60.5,59.6,30.02,ESE,118,0.0,0.0,97,0.00,,,0.00,WUHU216DAVISVP2,2013-07-05 10:33:00,
2013-07-05 06:38:00,60.4,59.5,30.03,SSE,154,0.0,0.0,97,0.00,,,0.00,WUHU216DAVISVP2,2013-07-05 10:38:00,
2013-07-05 06:43:00,60.4,59.5,30.03,SSE,154,0.0,0.0,97,0.00,,,0.00,WUHU216DAVISVP2,2013-07-05 10:43:00,
2013-07-05 06:48:00,60.4,59.5,30.03,West,261,0.0,0.0,97,0.00,,,0.00,WUHU216DAVISVP2,2013-07-05 10:48:00,
2013-07-05 06:53:00,60.4,59.5,30.03,East,85,0.0,0.0,97,0.00,,,0.00,WUHU216DAVISVP2,2013-07-05 10:53:00,
2013-07-05 06:58:00,60.5,59.6,30.03,ESE,107,0.0,0.0,97,0.00,,,0.00,WUHU216DAVISVP2,2013-07-05 10:58:00,
2013-07-05 07:03:00,60.6,60.0,30.03,South,185,0.0,0.0,98,0.00,,,0.00,WUHU216DAVISVP2,2013-07-05 11:03:00,
2013-07-05 07:08:00,60.7,60.1,30.03,South,184,0.0,0.0,98,0.00,,,0.00,WUHU216DAVISVP2,2013-07-05 11:08:00,
2013-07-05 07:14:00,60.9,60.3,30.03,South,184,0.0,0.0,98,0.00,,,0.00,WUHU216DAVISVP2,2013-07-05 11:14:00,
2013-07-05 07:19:00,61.2,60.6,30.03,South,184,0.0,0.0,98,0.00,,,0.00,WUHU216DAVISVP2,2013-07-05 11:19:00,
2013-07-05 07:24:00,61.5,60.9,30.03,WNW,291,0.0,1.0,98,0.00,,,0.00,WUHU216DAVISVP2,2013-07-05 11:24:00,
2013-07-05 07:30:00,62.0,61.4,30.03,North,355,0.0,1.0,98,0.00,,,0.00,WUHU216DAVISVP2,2013-07-05 11:30:00,
2013-07-05 07:35:00,62.3,61.7,30.03,SE,134,0.0,0.0,98,0.00,,,0.00,WUHU216DAVISVP2,2013-07-05 11:35:00,
2013-07-05 07:40:00,62.8,62.2,30.03,SE,134,0.0,0.0,98,0.00,,,0.00,WUHU216DAVISVP2,2013-07-05 11:40:00,
2013-07-05 07:45:00,63.3,62.7,30.03,SE,133,0.0,0.0,98,0.00,,,0.00,WUHU216DAVISVP2,2013-07-05 11:45:00,
2013-07-05 07:50:00,63.8,63.2,30.03,SE,133,0.0,0.0,98,0.00,,,0.00,WUHU216DAVISVP2,2013-07-05 11:50:00,
2013-07-05 07:55:00,64.1,63.5,30.03,NE,46,0.0,0.0,98,0.00,,,0.00,WUHU216DAVISVP2,2013-07-05 11:55:00,
2013-07-05 08:00:00,64.3,63.7,30.03,NE,42,0.0,0.0,98,0.00,,,0.00,WUHU216DAVISVP2,2013-07-05 12:00:00,
2013-07-05 08:05:00,64.6,64.0,30.03,West,270,0.0,0.0,98,0.00,,,0.00,WUHU216DAVISVP2,2013-07-05 12:05:00,
2013-07-05 08:10:00,65.0,64.4,30.04,NNE,29,0.0,0.0,98,0.00,,,0.00,WUHU216DAVISVP2,2013-07-05 12:10:00,
2013-07-05 08:16:00,65.1,64.5,30.03,WNW,287,0.0,0.0,98,0.00,,,0.00,WUHU216DAVISVP2,2013-07-05 12:16:00,
2013-07-05 08:21:00,65.3,64.7,30.04,WSW,240,0.0,1.0,98,0.00,,,0.00,WUHU216DAVISVP2,2013-07-05 12:21:00,
2013-07-05 08:26:00,65.6,65.0,30.05,WSW,240,0.0,1.0,98,0.00,,,0.00,WUHU216DAVISVP2,2013-07-05 12:26:00,
2013-07-05 08:31:00,65.9,65.3,30.04,WSW,240,0.0,0.0,98,0.00,,,0.00,WUHU216DAVISVP2,2013-07-05 12:31:00,
2013-07-05 08:36:00,66.2,65.6,30.04,WSW,240,0.0,0.0,98,0.00,,,0.00,WUHU216DAVISVP2,2013-07-05 12:36:00,
2013-07-05 08:41:00,66.4,65.8,30.04,WSW,240,0.0,1.0,98,0.00,,,0.00,WUHU216DAVISVP2,2013-07-05 12:41:00,
2013-07-05 08:46:00,66.5,65.9,30.04,WSW,240,0.0,1.0,98,0.00,,,0.00,WUHU216DAVISVP2,2013-07-05 12:46:00,
2013-07-05 08:51:00,66.5,65.9,30.04,WSW,239,0.0,1.0,98,0.00,,,0.00,WUHU216DAVISVP2,2013-07-05 12:51:00,
2013-07-05 08:56:00,66.7,66.1,30.05,WSW,239,0.0,1.0,98,0.00,,,0.00,WUHU216DAVISVP2,2013-07-05 12:56:00,
2013-07-05 09:01:00,67.1,66.2,30.05,South,171,0.0,1.0,97,0.00,,,0.00,WUHU216DAVISVP2,2013-07-05 13:01:00,
2013-07-05 09:06:00,67.5,66.3,30.05,WNW,300,0.0,1.0,96,0.00,,,0.00,WUHU216DAVISVP2,2013-07-05 13:06:00,
2013-07-05 09:12:00,68.1,66.9,30.05,WNW,292,0.0,1.0,96,0.00,,,0.00,WUHU216DAVISVP2,2013-07-05 13:12:00,
2013-07-05 09:17:00,68.8,67.3,30.05,NNE,27,1.0,1.0,95,0.00,,,0.00,WUHU216DAVISVP2,2013-07-05 13:17:00,
2013-07-05 09:22:00,69.7,68.2,30.05,NW,307,0.0,1.0,95,0.00,,,0.00,WUHU216DAVISVP2,2013-07-05 13:22:00,
2013-07-05 09:27:00,70.6,67.5,30.05,NW,307,0.0,2.0,90,0.00,,,0.00,WUHU216DAVISVP2,2013-07-05 13:27:00,
2013-07-05 09:32:00,71.4,68.0,30.05,East,96,0.0,2.0,89,0.00,,,0.00,WUHU216DAVISVP2,2013-07-05 13:32:00,
2013-07-05 09:37:00,71.8,67.4,30.06,ESE,108,1.0,2.0,86,0.00,,,0.00,WUHU216DAVISVP2,2013-07-05 13:37:00,
2013-07-05 09:42:00,72.1,67.7,30.06,ESE,111,0.0,2.0,86,0.00,,,0.00,WUHU216DAVISVP2,2013-07-05 13:42:00,
2013-07-05 09:47:00,72.5,67.8,30.06,SSE,155,0.0,4.0,85,0.00,,,0.00,WUHU216DAVISVP2,2013-07-05 13:47:00,
2013-07-05 09:52:00,73.0,68.6,30.06,SSE,155,0.0,4.0,86,0.00,,,0.00,WUHU216DAVISVP2,2013-07-05 13:52:00,
2013-07-05 09:57:00,73.6,67.8,30.06,SE,137,0.0,2.0,82,0.00,,,0.00,WUHU216DAVISVP2,2013-07-05 13:57:00,
2013-07-05 10:02:00,74.1,68.7,30.06,WSW,249,0.0,3.0,83,0.00,,,0.00,WUHU216DAVISVP2,2013-07-05 14:02:00,
2013-07-05 10:07:00,74.5,68.4,30.06,WNW,288,0.0,4.0,81,0.00,,,0.00,WUHU216DAVISVP2,2013-07-05 14:07:00,
2013-07-05 10:12:00,74.8,67.2,30.06,WNW,290,0.0,4.0,77,0.00,,,0.00,WUHU216DAVISVP2,2013-07-05 14:12:00,
2013-07-05 10:18:00,75.1,68.1,30.06,ENE,69,0.0,2.0,79,0.00,,,0.00,WUHU216DAVISVP2,2013-07-05 14:18:00,
2013-07-05 10:23:00,75.4,68.5,30.06,North,360,0.0,2.0,79,0.00,,,0.00,WUHU216DAVISVP2,2013-07-05 14:23:00,
2013-07-05 10:28:00,75.7,67.6,30.05,North,355,0.0,1.0,76,0.00,,,0.00,WUHU216DAVISVP2,2013-07-05 14:28:00,
2013-07-05 10:33:00,76.0,68.4,30.06,North,355,1.0,2.0,77,0.00,,,0.00,WUHU216DAVISVP2,2013-07-05 14:33:00,
2013-07-05 10:39:00,76.2,68.1,30.06,NNW,334,0.0,2.0,76,0.00,,,0.00,WUHU216DAVISVP2,2013-07-05 14:39:00,
2013-07-05 10:44:00,76.5,69.3,30.06,NNW,334,1.0,2.0,78,0.00,,,0.00,WUHU216DAVISVP2,2013-07-05 14:44:00,
2013-07-05 10:49:00,76.7,67.8,30.06,NNW,334,0.0,2.0,74,0.00,,,0.00,WUHU216DAVISVP2,2013-07-05 14:49:00,
2013-07-05 10:55:00,77.0,68.3,30.06,NNW,345,0.0,2.0,74,0.00,,,0.00,WUHU216DAVISVP2,2013-07-05 14:55:00,
2013-07-05 11:00:00,76.9,67.4,30.06,SSW,209,2.0,3.0,72,0.00,,,0.00,WUHU216DAVISVP2,2013-07-05 15:00:00,
2013-07-05 11:05:00,76.7,67.2,30.06,SSW,209,0.0,3.0,72,0.00,,,0.00,WUHU216DAVISVP2,2013-07-05 15:05:00,
2013-07-05 11:10:00,76.5,67.8,30.06,SSW,207,0.0,2.0,74,0.00,,,0.00,WUHU216DAVISVP2,2013-07-05 15:10:00,
2013-07-05 11:15:00,76.5,67.8,30.06,SSE,160,0.0,4.0,74,0.00,,,0.00,WUHU216DAVISVP2,2013-07-05 15:15:00,
2013-07-05 11:21:00,76.4,67.3,30.06,SSE,165,1.0,4.0,73,0.00,,,0.00,WUHU216DAVISVP2,2013-07-05 15:21:00,
2013-07-05 11:26:00,76.9,69.3,30.06,SSE,152,1.0,2.0,77,0.00,,,0.00,WUHU216DAVISVP2,2013-07-05 15:26:00,
2013-07-05 11:31:00,77.3,68.5,30.06,SSE,147,0.0,2.0,74,0.00,,,0.00,WUHU216DAVISVP2,2013-07-05 15:31:00,
2013-07-05 11:36:00,77.8,68.2,30.05,ESE,114,1.0,4.0,72,0.00,,,0.00,WUHU216DAVISVP2,2013-07-05 15:36:00,
2013-07-05 11:41:00,77.8,67.4,30.05,SSE,159,1.0,5.0,70,0.00,,,0.00,WUHU216DAVISVP2,2013-07-05 15:41:00,
2013-07-05 11:46:00,77.8,67.0,30.05,SSE,166,1.0,5.0,69,0.00,,,0.00,WUHU216DAVISVP2,2013-07-05 15:46:00,
2013-07-05 11:50:00,77.9,66.3,30.05,South,171,1.0,4.0,67,0.00,,,0.00,WUHU216DAVISVP2,2013-07-05 15:50:00,
2013-07-05 11:55:00,78.4,69.6,30.05,South,174,0.0,2.0,74,0.00,,,0.00,WUHU216DAVISVP2,2013-07-05 15:55:00,
2013-07-05 12:00:00,79.1,68.3,30.05,NNE,15,2.0,5.0,69,0.00,,,0.00,WUHU216DAVISVP2,2013-07-05 16:00:00,
2013-07-05 12:05:00,79.8,69.0,30.05,NNW,348,0.0,5.0,69,0.00,,,0.00,WUHU216DAVISVP2,2013-07-05 16:05:00,
2013-07-05 12:10:00,80.2,67.6,30.05,WNW,301,1.0,5.0,65,0.00,,,0.00,WUHU216DAVISVP2,2013-07-05 16:10:00,
2013-07-05 12:15:00,80.1,68.4,30.05,WNW,287,0.0,5.0,67,0.00,,,0.00,WUHU216DAVISVP2,2013-07-05 16:15:00,
2013-07-05 12:20:00,80.0,68.3,30.05,WNW,286,0.0,5.0,67,0.00,,,0.00,WUHU216DAVISVP2,2013-07-05 16:20:00,
2013-07-05 12:25:00,79.5,68.7,30.05,West,269,0.0,2.0,69,0.00,,,0.00,WUHU216DAVISVP2,2013-07-05 16:25:00,
2013-07-05 12:30:00,79.3,67.6,30.05,WSW,250,3.0,3.0,67,0.00,,,0.00,WUHU216DAVISVP2,2013-07-05 16:30:00,
2013-07-05 12:35:00,78.6,67.4,30.05,SSW,192,0.0,4.0,68,0.00,,,0.00,WUHU216DAVISVP2,2013-07-05 16:35:00,
2013-07-05 12:40:00,78.2,68.2,30.05,SSW,193,0.0,4.0,71,0.00,,,0.00,WUHU216DAVISVP2,2013-07-05 16:40:00,
2013-07-05 12:45:00,78.2,69.8,30.05,South,191,0.0,2.0,75,0.00,,,0.00,WUHU216DAVISVP2,2013-07-05 16:45:00,
2013-07-05 12:50:00,78.4,67.6,30.05,South,178,0.0,2.0,69,0.00,,,0.00,WUHU216DAVISVP2,2013-07-05 16:50:00,
2013-07-05 12:55:00,78.5,66.9,30.05,South,179,0.0,2.0,67,0.00,,,0.00,WUHU216DAVISVP2,2013-07-05 16:55:00,
2013-07-05 13:00:00,78.9,67.7,30.05,South,178,0.0,2.0,68,0.00,,,0.00,WUHU216DAVISVP2,2013-07-05 17:00:00,
2013-07-05 13:05:00,79.1,68.3,30.05,South,177,0.0,2.0,69,0.00,,,0.00,WUHU216DAVISVP2,2013-07-05 17:05:00,
2013-07-05 13:10:00,78.9,68.5,30.05,South,170,2.0,5.0,70,0.00,,,0.00,WUHU216DAVISVP2,2013-07-05 17:10:00,
2013-07-05 13:15:00,78.4,69.2,30.05,South,169,1.0,5.0,73,0.00,,,0.00,WUHU216DAVISVP2,2013-07-05 17:15:00,
2013-07-05 13:20:00,78.2,69.0,30.05,South,170,0.0,4.0,73,0.00,,,0.00,WUHU216DAVISVP2,2013-07-05 17:20:00,
2013-07-05 13:26:00,78.6,68.6,30.04,South,171,0.0,1.0,71,0.00,,,0.00,WUHU216DAVISVP2,2013-07-05 17:26:00,
2013-07-05 13:31:00,79.0,68.6,30.04,West,262,1.0,4.0,70,0.00,,,0.00,WUHU216DAVISVP2,2013-07-05 17:31:00,
2013-07-05 13:36:00,79.3,69.3,30.04,West,261,0.0,4.0,71,0.00,,,0.00,WUHU216DAVISVP2,2013-07-05 17:36:00,
2013-07-05 13:41:00,79.6,70.4,30.03,ENE,64,0.0,2.0,73,0.00,,,0.00,WUHU216DAVISVP2,2013-07-05 17:41:00,
2013-07-05 13:46:00,80.0,69.1,30.04,SSE,167,0.0,6.0,69,0.00,,,0.00,WUHU216DAVISVP2,2013-07-05 17:46:00,
2013-07-05 13:51:00,80.0,69.6,30.04,South,188,1.0,6.0,70,0.00,,,0.00,WUHU216DAVISVP2,2013-07-05 17:51:00,
2013-07-05 13:56:00,79.8,69.0,30.03,SSW,207,0.0,5.0,69,0.00,,,0.00,WUHU216DAVISVP2,2013-07-05 17:56:00,
2013-07-05 14:01:00,79.8,69.4,30.03,SSW,209,2.0,5.0,70,0.00,,,0.00,WUHU216DAVISVP2,2013-07-05 18:01:00,
2013-07-05 14:06:00,79.8,68.1,30.03,SSE,163,4.0,5.0,67,0.00,,,0.00,WUHU216DAVISVP2,2013-07-05 18:06:00,
2013-07-05 14:11:00,79.4,67.7,30.03,SSE,161,1.0,6.0,67,0.00,,,0.00,WUHU216DAVISVP2,2013-07-05 18:11:00,
2013-07-05 14:16:00,79.6,68.8,30.03,SW,234,4.0,6.0,69,0.00,,,0.00,WUHU216DAVISVP2,2013-07-05 18:16:00,
2013-07-05 14:21:00,80.0,67.9,30.03,South,182,0.0,6.0,66,0.00,,,0.00,WUHU216DAVISVP2,2013-07-05 18:21:00,
2013-07-05 14:26:00,80.2,67.6,30.03,SSE,160,0.0,5.0,65,0.00,,,0.00,WUHU216DAVISVP2,2013-07-05 18:26:00,
2013-07-05 14:31:00,80.2,70.2,30.03,South,178,2.0,5.0,71,0.00,,,0.00,WUHU216DAVISVP2,2013-07-05 18:31:00,
2013-07-05 14:36:00,80.4,68.7,30.03,SSW,193,0.0,6.0,67,0.00,,,0.00,WUHU216DAVISVP2,2013-07-05 18:36:00,
2013-07-05 14:41:00,80.8,69.9,30.03,South,178,2.0,6.0,69,0.00,,,0.00,WUHU216DAVISVP2,2013-07-05 18:41:00,
2013-07-05 14:46:00,81.0,69.7,30.03,SSE,152,5.0,7.0,68,0.00,,,0.00,WUHU216DAVISVP2,2013-07-05 18:46:00,
2013-07-05 14:51:00,80.6,69.7,30.03,South,188,1.0,9.0,69,0.00,,,0.00,WUHU216DAVISVP2,2013-07-05 18:51:00,
2013-07-05 14:56:00,79.5,69.5,30.03,SW,214,3.0,9.0,71,0.00,,,0.00,WUHU216DAVISVP2,2013-07-05 18:56:00,
2013-07-05 15:01:00,79.2,69.6,30.03,SSE,157,4.0,8.0,72,0.00,,,0.00,WUHU216DAVISVP2,2013-07-05 19:01:00,
2013-07-05 15:06:00,79.4,69.8,30.03,South,186,4.0,7.0,72,0.00,,,0.00,WUHU216DAVISVP2,2013-07-05 19:06:00,
2013-07-05 15:11:00,80.0,69.1,30.02,South,178,0.0,8.0,69,0.00,,,0.00,WUHU216DAVISVP2,2013-07-05 19:11:00,
2013-07-05 15:16:00,80.5,69.6,30.03,South,173,2.0,8.0,69,0.00,,,0.00,WUHU216DAVISVP2,2013-07-05 19:16:00,
2013-07-05 15:21:00,81.1,70.2,30.02,South,178,7.0,7.0,69,0.00,,,0.00,WUHU216DAVISVP2,2013-07-05 19:21:00,
2013-07-05 15:26:00,81.4,70.9,30.02,SSE,165,1.0,7.0,70,0.00,,,0.00,WUHU216DAVISVP2,2013-07-05 19:26:00,
2013-07-05 15:31:00,81.4,70.9,30.02,South,178,5.0,5.0,70,0.00,,,0.00,WUHU216DAVISVP2,2013-07-05 19:31:00,
2013-07-05 15:36:00,81.4,70.9,30.02,South,176,0.0,5.0,70,0.00,,,0.00,WUHU216DAVISVP2,2013-07-05 19:36:00,
2013-07-05 15:41:00,81.9,71.4,30.02,South,169,0.0,5.0,70,0.00,,,0.00,WUHU216DAVISVP2,2013-07-05 19:41:00,
2013-07-05 15:46:00,82.0,69.8,30.02,ENE,63,1.0,5.0,66,0.00,,,0.00,WUHU216DAVISVP2,2013-07-05 19:46:00,
2013-07-05 15:51:00,82.0,69.8,30.02,South,171,1.0,5.0,66,0.00,,,0.00,WUHU216DAVISVP2,2013-07-05 19:51:00,
2013-07-05 15:56:00,82.1,69.4,30.01,SSE,149,1.0,6.0,65,0.00,,,0.00,WUHU216DAVISVP2,2013-07-05 19:56:00,
2013-07-05 16:01:00,81.9,69.2,30.01,SE,142,0.0,6.0,65,0.00,,,0.00,WUHU216DAVISVP2,2013-07-05 20:01:00,
2013-07-05 16:06:00,81.8,69.1,30.01,South,182,2.0,9.0,65,0.00,,,0.00,WUHU216DAVISVP2,2013-07-05 20:06:00,
2013-07-05 16:11:00,81.3,69.1,30.01,SSE,148,1.0,9.0,66,0.00,,,0.00,WUHU216DAVISVP2,2013-07-05 20:11:00,
2013-07-05 16:16:00,81.4,70.1,30.01,SSE,167,2.0,8.0,68,0.00,,,0.00,WUHU216DAVISVP2,2013-07-05 20:16:00,
2013-07-05 16:21:00,81.5,68.4,30.01,South,188,1.0,7.0,64,0.00,,,0.00,WUHU216DAVISVP2,2013-07-05 20:21:00,
2013-07-05 16:26:00,81.8,69.6,30.00,South,183,1.0,6.0,66,0.00,,,0.00,WUHU216DAVISVP2,2013-07-05 20:26:00,
2013-07-05 16:31:00,82.0,68.9,30.00,SSE,159,1.0,6.0,64,0.00,,,0.00,WUHU216DAVISVP2,2013-07-05 20:31:00,
2013-07-05 16:36:00,82.3,70.5,30.00,SSE,161,2.0,6.0,67,0.00,,,0.00,WUHU216DAVISVP2,2013-07-05 20:36:00,
2013-07-05 16:42:00,82.3,70.1,30.00,SE,129,4.0,7.0,66,0.00,,,0.00,WUHU216DAVISVP2,2013-07-05 20:42:00,
2013-07-05 16:47:00,81.7,69.9,30.00,SSW,192,4.0,7.0,67,0.00,,,0.00,WUHU216DAVISVP2,2013-07-05 20:47:00,
2013-07-05 16:52:00,81.5,68.4,30.00,South,186,2.0,5.0,64,0.00,,,0.00,WUHU216DAVISVP2,2013-07-05 20:52:00,
2013-07-05 16:57:00,81.9,68.3,30.00,SSE,165,2.0,5.0,63,0.00,,,0.00,WUHU216DAVISVP2,2013-07-05 20:57:00,
2013-07-05 17:03:00,82.4,69.3,30.00,SE,127,4.0,5.0,64,0.00,,,0.00,WUHU216DAVISVP2,2013-07-05 21:03:00,
2013-07-05 17:08:00,82.2,68.1,30.00,SSW,199,3.0,7.0,62,0.00,,,0.00,WUHU216DAVISVP2,2013-07-05 21:08:00,
2013-07-05 17:13:00,82.5,68.4,30.00,SSE,161,4.0,7.0,62,0.00,,,0.00,WUHU216DAVISVP2,2013-07-05 21:13:00,
2013-07-05 17:17:00,82.4,67.9,30.00,SSE,164,2.0,7.0,61,0.00,,,0.00,WUHU216DAVISVP2,2013-07-05 21:17:00,
2013-07-05 17:22:00,82.4,70.3,30.00,South,174,2.0,7.0,67,0.00,,,0.00,WUHU216DAVISVP2,2013-07-05 21:22:00,
2013-07-05 17:27:00,82.5,69.1,30.00,South,188,1.0,5.0,64,0.00,,,0.00,WUHU216DAVISVP2,2013-07-05 21:27:00,
2013-07-05 17:33:00,82.4,69.0,30.00,South,178,6.0,6.0,64,0.00,,,0.00,WUHU216DAVISVP2,2013-07-05 21:33:00,
2013-07-05 17:38:00,82.2,69.3,29.99,SSE,154,1.0,6.0,65,0.00,,,0.00,WUHU216DAVISVP2,2013-07-05 21:38:00,
2013-07-05 17:43:00,82.2,68.1,29.99,SSW,197,4.0,7.0,62,0.00,,,0.00,WUHU216DAVISVP2,2013-07-05 21:43:00,
2013-07-05 17:48:00,82.3,67.8,29.99,SSE,153,2.0,7.0,61,0.00,,,0.00,WUHU216DAVISVP2,2013-07-05 21:48:00,
2013-07-05 17:53:00,82.2,67.4,29.99,NW,311,2.0,6.0,61,0.00,,,0.00,WUHU216DAVISVP2,2013-07-05 21:53:00,
2013-07-05 17:58:00,82.1,66.6,29.99,South,170,0.0,7.0,59,0.00,,,0.00,WUHU216DAVISVP2,2013-07-05 21:58:00,
2013-07-05 18:03:00,82.3,68.2,29.99,South,188,1.0,7.0,62,0.00,,,0.00,WUHU216DAVISVP2,2013-07-05 22:03:00,
2013-07-05 18:08:00,82.4,67.4,29.99,WSW,252,2.0,6.0,60,0.00,,,0.00,WUHU216DAVISVP2,2013-07-05 22:08:00,
2013-07-05 18:13:00,82.5,67.9,29.99,SSW,192,3.0,6.0,61,0.00,,,0.00,WUHU216DAVISVP2,2013-07-05 22:13:00,
2013-07-05 18:18:00,82.4,67.4,29.98,SSE,167,0.0,6.0,60,0.00,,,0.00,WUHU216DAVISVP2,2013-07-05 22:18:00,
2013-07-05 18:23:00,82.3,68.7,29.98,SSE,152,2.0,6.0,63,0.00,,,0.00,WUHU216DAVISVP2,2013-07-05 22:23:00,
2013-07-05 18:28:00,82.2,68.6,29.98,SSE,164,0.0,4.0,63,0.00,,,0.00,WUHU216DAVISVP2,2013-07-05 22:28:00,
2013-07-05 18:33:00,82.1,68.5,29.98,SSE,161,4.0,5.0,63,0.00,,,0.00,WUHU216DAVISVP2,2013-07-05 22:33:00,
2013-07-05 18:38:00,81.9,67.4,29.98,South,175,0.0,5.0,61,0.00,,,0.00,WUHU216DAVISVP2,2013-07-05 22:38:00,
2013-07-05 18:43:00,81.7,67.4,29.97,South,173,0.0,5.0,62,0.00,,,0.00,WUHU216DAVISVP2,2013-07-05 22:43:00,
2013-07-05 18:48:00,81.5,68.1,29.98,North,351,0.0,7.0,64,0.00,,,0.00,WUHU216DAVISVP2,2013-07-05 22:48:00,
2013-07-05 18:53:00,81.7,67.4,29.97,SSW,211,2.0,7.0,62,0.00,,,0.00,WUHU216DAVISVP2,2013-07-05 22:53:00,
2013-07-05 18:58:00,81.8,68.4,29.97,West,261,0.0,6.0,64,0.00,,,0.00,WUHU216DAVISVP2,2013-07-05 22:58:00,
2013-07-05 19:03:00,82.0,67.7,29.97,SSE,154,5.0,5.0,62,0.00,,,0.00,WUHU216DAVISVP2,2013-07-05 23:03:00,
2013-07-05 19:08:00,81.6,68.2,29.98,SSW,207,3.0,8.0,64,0.00,,,0.00,WUHU216DAVISVP2,2013-07-05 23:08:00,
2013-07-05 19:13:00,81.2,67.9,29.97,South,178,0.0,8.0,64,0.00,,,0.00,WUHU216DAVISVP2,2013-07-05 23:13:00,
2013-07-05 19:18:00,81.3,68.4,29.98,South,171,5.0,6.0,65,0.00,,,0.00,WUHU216DAVISVP2,2013-07-05 23:18:00,
2013-07-05 19:23:00,81.1,68.0,29.98,SSE,168,1.0,6.0,64,0.00,,,0.00,WUHU216DAVISVP2,2013-07-05 23:23:00,
2013-07-05 19:28:00,80.9,67.8,29.98,SE,144,5.0,7.0,64,0.00,,,0.00,WUHU216DAVISVP2,2013-07-05 23:28:00,
2013-07-05 19:33:00,80.7,68.5,29.98,South,171,0.0,7.0,66,0.00,,,0.00,WUHU216DAVISVP2,2013-07-05 23:33:00,
2013-07-05 19:38:00,80.8,69.9,29.98,SW,220,0.0,5.0,69,0.00,,,0.00,WUHU216DAVISVP2,2013-07-05 23:38:00,
2013-07-05 19:43:00,80.7,69.4,29.98,South,172,0.0,5.0,68,0.00,,,0.00,WUHU216DAVISVP2,2013-07-05 23:43:00,
2013-07-05 19:49:00,80.5,68.8,29.98,SSW,199,0.0,5.0,67,0.00,,,0.00,WUHU216DAVISVP2,2013-07-05 23:49:00,
2013-07-05 19:54:00,80.3,68.1,29.98,South,184,1.0,4.0,66,0.00,,,0.00,WUHU216DAVISVP2,2013-07-05 23:54:00,
2013-07-05 19:59:00,80.2,68.1,29.98,SSW,209,2.0,4.0,66,0.00,,,0.00,WUHU216DAVISVP2,2013-07-05 23:59:00,
2013-07-05 20:04:00,79.7,68.0,29.98,South,191,1.0,5.0,67,0.00,,,0.00,WUHU216DAVISVP2,2013-07-06 00:04:00,
2013-07-05 20:10:00,79.1,68.3,29.98,West,277,1.0,6.0,69,0.00,,,0.00,WUHU216DAVISVP2,2013-07-06 00:10:00,
2013-07-05 20:15:00,78.7,67.9,29.99,South,174,0.0,5.0,69,0.00,,,0.00,WUHU216DAVISVP2,2013-07-06 00:15:00,
2013-07-05 20:20:00,78.4,68.0,29.99,South,177,1.0,4.0,70,0.00,,,0.00,WUHU216DAVISVP2,2013-07-06 00:20:00,
2013-07-05 20:25:00,78.2,68.6,29.99,South,176,0.0,4.0,72,0.00,,,0.00,WUHU216DAVISVP2,2013-07-06 00:25:00,
2013-07-05 20:30:00,78.0,67.8,29.99,South,188,0.0,4.0,71,0.00,,,0.00,WUHU216DAVISVP2,2013-07-06 00:30:00,
2013-07-05 20:35:00,77.9,68.1,29.99,WSW,239,0.0,4.0,72,0.00,,,0.00,WUHU216DAVISVP2,2013-07-06 00:35:00,
2013-07-05 20:41:00,77.9,69.3,29.99,SW,234,0.0,2.0,75,0.00,,,0.00,WUHU216DAVISVP2,2013-07-06 00:41:00,
2013-07-05 20:46:00,77.7,68.7,29.99,SW,232,0.0,2.0,74,0.00,,,0.00,WUHU216DAVISVP2,2013-07-06 00:46:00,
2013-07-05 20:51:00,77.5,68.9,29.98,SW,231,0.0,1.0,75,0.00,,,0.00,WUHU216DAVISVP2,2013-07-06 00:51:00,
2013-07-05 20:56:00,77.3,68.9,29.99,SW,230,0.0,0.0,75,0.00,,,0.00,WUHU216DAVISVP2,2013-07-06 00:56:00,
2013-07-05 21:01:00,76.9,69.6,29.99,SW,231,0.0,0.0,78,0.00,,,0.00,WUHU216DAVISVP2,2013-07-06 01:01:00,
2013-07-05 21:06:00,76.5,69.3,29.99,SW,230,0.0,0.0,78,0.00,,,0.00,WUHU216DAVISVP2,2013-07-06 01:06:00,
2013-07-05 21:11:00,76.1,69.5,30.00,SW,231,0.0,0.0,80,0.00,,,0.00,WUHU216DAVISVP2,2013-07-06 01:11:00,
2013-07-05 21:16:00,75.7,69.5,30.00,SW,230,0.0,0.0,81,0.00,,,0.00,WUHU216DAVISVP2,2013-07-06 01:16:00,
2013-07-05 21:21:00,75.2,69.4,29.99,SW,230,0.0,0.0,82,0.00,,,0.00,WUHU216DAVISVP2,2013-07-06 01:21:00,
2013-07-05 21:26:00,74.8,69.0,29.99,SW,231,0.0,0.0,82,0.00,,,0.00,WUHU216DAVISVP2,2013-07-06 01:26:00,
2013-07-05 21:31:00,74.5,69.4,29.99,SW,230,0.0,0.0,84,0.00,,,0.00,WUHU216DAVISVP2,2013-07-06 01:31:00,
2013-07-05 21:36:00,74.0,69.6,30.00,SW,231,0.0,0.0,86,0.00,,,0.00,WUHU216DAVISVP2,2013-07-06 01:36:00,
2013-07-05 21:41:00,73.5,69.4,30.00,SW,230,0.0,0.0,87,0.00,,,0.00,WUHU216DAVISVP2,2013-07-06 01:41:00,
2013-07-05 21:46:00,73.2,69.1,29.99,SW,231,0.0,0.0,87,0.00,,,0.00,WUHU216DAVISVP2,2013-07-06 01:46:00,
2013-07-05 21:51:00,72.8,69.0,29.99,SW,231,0.0,0.0,88,0.00,,,0.00,WUHU216DAVISVP2,2013-07-06 01:51:00,
2013-07-05 21:56:00,72.4,69.0,29.99,SW,230,0.0,0.0,89,0.00,,,0.00,WUHU216DAVISVP2,2013-07-06 01:56:00,
2013-07-05 22:01:00,71.9,68.8,29.99,SW,230,0.0,0.0,90,0.00,,,0.00,WUHU216DAVISVP2,2013-07-06 02:01:00,
2013-07-05 22:06:00,71.6,68.5,29.99,SW,230,0.0,0.0,90,0.00,,,0.00,WUHU216DAVISVP2,2013-07-06 02:06:00,
2013-07-05 22:11:00,71.3,68.2,30.00,SW,230,0.0,0.0,90,0.00,,,0.00,WUHU216DAVISVP2,2013-07-06 02:11:00,
2013-07-05 22:16:00,71.0,67.9,30.00,SW,230,0.0,0.0,90,0.00,,,0.00,WUHU216DAVISVP2,2013-07-06 02:16:00,
2013-07-05 22:21:00,70.7,67.9,30.00,SW,230,0.0,0.0,91,0.00,,,0.00,WUHU216DAVISVP2,2013-07-06 02:21:00,
2013-07-05 22:26:00,70.5,67.7,30.00,SW,230,0.0,0.0,91,0.00,,,0.00,WUHU216DAVISVP2,2013-07-06 02:26:00,
2013-07-05 22:31:00,70.3,67.5,30.00,SW,230,0.0,0.0,91,0.00,,,0.00,WUHU216DAVISVP2,2013-07-06 02:31:00,
2013-07-05 22:36:00,70.1,67.3,30.00,SW,230,0.0,0.0,91,0.00,,,0.00,WUHU216DAVISVP2,2013-07-06 02:36:00,
2013-07-05 22:41:00,69.9,67.4,30.00,SW,230,0.0,0.0,92,0.00,,,0.00,WUHU216DAVISVP2,2013-07-06 02:41:00,
2013-07-05 22:42:00,69.9,67.4,30.00,SW,230,0.0,0.0,92,0.00,,,0.00,WUHU216DAVISVP2,2013-07-06 02:42:00,
2013-07-05 22:48:00,69.7,67.2,30.01,SW,231,0.0,0.0,92,0.00,,,0.00,WUHU216DAVISVP2,2013-07-06 02:48:00,
2013-07-05 22:53:00,69.6,67.5,30.01,SW,230,0.0,0.0,93,0.00,,,0.00,WUHU216DAVISVP2,2013-07-06 02:53:00,
2013-07-05 22:58:00,69.5,67.7,30.01,SW,230,0.0,0.0,94,0.00,,,0.00,WUHU216DAVISVP2,2013-07-06 02:58:00,
2013-07-05 23:03:00,69.5,67.7,30.01,SW,230,0.0,0.0,94,0.00,,,0.00,WUHU216DAVISVP2,2013-07-06 03:03:00,
2013-07-05 23:08:00,69.4,67.6,30.01,SW,230,0.0,0.0,94,0.00,,,0.00,WUHU216DAVISVP2,2013-07-06 03:08:00,
2013-07-05 23:13:00,69.3,67.5,30.01,SW,230,0.0,0.0,94,0.00,,,0.00,WUHU216DAVISVP2,2013-07-06 03:13:00,
2013-07-05 23:18:00,69.2,67.4,30.01,SW,230,0.0,0.0,94,0.00,,,0.00,WUHU216DAVISVP2,2013-07-06 03:18:00,
2013-07-05 23:23:00,69.0,67.2,30.01,SW,231,0.0,0.0,94,0.00,,,0.00,WUHU216DAVISVP2,2013-07-06 03:23:00,
2013-07-05 23:28:00,69.0,67.2,30.02,SW,230,0.0,0.0,94,0.00,,,0.00,WUHU216DAVISVP2,2013-07-06 03:28:00,
2013-07-05 23:33:00,68.9,67.4,30.01,SW,230,0.0,0.0,95,0.00,,,0.00,WUHU216DAVISVP2,2013-07-06 03:33:00,
2013-07-05 23:38:00,68.8,67.3,30.02,SW,230,0.0,0.0,95,0.00,,,0.00,WUHU216DAVISVP2,2013-07-06 03:38:00,
2013-07-05 23:43:00,68.6,66.8,30.02,SW,230,0.0,0.0,94,0.00,,,0.00,WUHU216DAVISVP2,2013-07-06 03:43:00,
2013-07-05 23:48:00,68.6,67.1,30.02,SW,230,0.0,0.0,95,0.00,,,0.00,WUHU216DAVISVP2,2013-07-06 03:48:00,
2013-07-05 23:53:00,68.5,67.0,30.02,SW,230,0.0,0.0,95,0.00,,,0.00,WUHU216DAVISVP2,2013-07-06 03:53:00,
2013-07-05 23:58:00,68.4,66.9,30.02,SW,230,0.0,0.0,95,0.00,,,0.00,WUHU216DAVISVP2,2013-07-06 03:58:00,